createdAt,value
2022-09-11T00:01:28.506Z,94752.19
2022-09-11T00:03:56.485Z,94744.75
2022-09-11T00:06:29.862Z,94750.94
2022-09-11T00:09:04.273Z,94754.84
2022-09-11T00:11:40.727Z,94740.72
2022-09-11T00:14:14.352Z,94746.09
2022-09-11T00:16:45.194Z,94755.53
2022-09-11T00:19:18.954Z,94749.41
2022-09-11T00:21:47.063Z,94742.44
2022-09-11T00:24:13.884Z,94745.31
2022-09-11T00:26:41.234Z,94747.59
2022-09-11T00:29:09.193Z,94754.78
2022-09-11T00:31:36.238Z,94743.25
2022-09-11T00:34:03.085Z,94744.00
2022-09-11T00:36:31.782Z,94741.72
2022-09-11T00:39:00.170Z,94738.31
2022-09-11T00:41:36.479Z,94733.03
2022-09-11T00:44:16.026Z,94745.50
2022-09-11T00:47:05.664Z,94735.94
2022-09-11T00:49:45.089Z,94737.19
2022-09-11T00:52:20.026Z,94745.75
2022-09-11T00:55:00.552Z,94742.47
2022-09-11T00:57:32.486Z,94746.34
2022-09-11T01:00:01.224Z,94731.00
2022-09-11T01:02:32.203Z,94727.38
2022-09-11T01:04:59.058Z,94726.75
2022-09-11T01:07:28.749Z,94733.84
2022-09-11T01:09:55.955Z,94720.72
2022-09-11T01:12:54.198Z,94727.47
2022-09-11T01:15:51.357Z,94727.97
2022-09-11T01:18:26.945Z,94731.44
2022-09-11T01:21:34.483Z,94725.06
2022-09-11T01:24:23.885Z,94730.28
2022-09-11T01:27:07.072Z,94728.41
2022-09-11T01:29:55.966Z,94711.09
2022-09-11T01:32:37.246Z,94710.41
2022-09-11T01:35:12.190Z,94728.06
2022-09-11T01:37:58.500Z,94725.78
2022-09-11T01:40:36.816Z,94720.75
2022-09-11T01:43:10.033Z,94721.66
2022-09-11T01:45:40.403Z,94727.22
2022-09-11T01:48:10.130Z,94715.25
2022-09-11T01:50:41.365Z,94716.13
2022-09-11T01:53:09.979Z,94712.22
2022-09-11T01:55:43.113Z,94720.28
2022-09-11T01:58:15.558Z,94728.44
2022-09-11T02:00:46.346Z,94727.53
2022-09-11T02:03:27.136Z,94725.38
2022-09-11T02:06:26.893Z,94715.63
2022-09-11T02:09:06.842Z,94724.25
2022-09-11T02:11:41.058Z,94717.78
2022-09-11T02:14:38.938Z,94725.53
2022-09-11T02:17:33.065Z,94723.06
2022-09-11T02:20:01.046Z,94714.31
2022-09-11T02:22:27.904Z,94704.41
2022-09-11T02:24:55.703Z,94710.56
2022-09-11T02:27:27.793Z,94713.41
2022-09-11T02:29:55.703Z,94714.59
2022-09-11T02:32:23.159Z,94707.66
2022-09-11T02:34:51.084Z,94698.22
2022-09-11T02:37:45.767Z,94723.72
2022-09-11T02:40:39.104Z,94715.00
2022-09-11T02:43:11.496Z,94722.56
2022-09-11T02:46:31.633Z,94715.00
2022-09-11T02:49:14.845Z,94714.34
2022-09-11T02:52:03.412Z,94713.00
2022-09-11T02:54:49.625Z,94722.00
2022-09-11T02:57:24.936Z,94722.91
2022-09-11T03:00:07.168Z,94727.91
2022-09-11T03:02:37.614Z,94723.44
2022-09-11T03:05:06.405Z,94718.44
2022-09-11T03:07:33.415Z,94721.19
2022-09-11T03:10:00.133Z,94726.19
2022-09-11T03:12:30.023Z,94724.00
2022-09-11T03:14:57.616Z,94729.03
2022-09-11T03:17:25.515Z,94726.91
2022-09-11T03:19:52.269Z,94726.38
2022-09-11T03:22:19.514Z,94732.34
2022-09-11T03:24:46.222Z,94731.31
2022-09-11T03:27:12.925Z,94734.25
2022-09-11T03:29:40.832Z,94708.63
2022-09-11T03:32:07.568Z,94711.72
2022-09-11T03:34:34.437Z,94702.88
2022-09-11T03:37:02.286Z,94719.81
2022-09-11T03:39:29.116Z,94721.66
2022-09-11T03:41:55.842Z,94713.47
2022-09-11T03:44:22.596Z,94717.63
2022-09-11T03:46:49.344Z,94722.75
2022-09-11T03:49:16.065Z,94700.88
2022-09-11T03:51:42.799Z,94716.19
2022-09-11T03:54:10.045Z,94709.34
2022-09-11T03:56:37.323Z,94708.09
2022-09-11T03:59:04.112Z,94722.00
2022-09-11T04:01:30.838Z,94721.53
2022-09-11T04:03:57.753Z,94722.19
2022-09-11T04:06:24.514Z,94725.44
2022-09-11T04:08:51.281Z,94730.63
2022-09-11T04:11:18.009Z,94722.25
2022-09-11T04:13:44.809Z,94713.25
2022-09-11T04:16:17.735Z,94719.97
2022-09-11T04:18:46.094Z,94728.59
2022-09-11T04:21:16.775Z,94729.06
2022-09-11T04:23:48.154Z,94714.59
2022-09-11T04:26:21.042Z,94726.25
2022-09-11T04:28:48.008Z,94717.25
2022-09-11T04:31:17.854Z,94727.91
2022-09-11T04:33:45.733Z,94735.19
2022-09-11T04:36:17.810Z,94737.88
2022-09-11T04:38:45.546Z,94731.88
2022-09-11T04:41:12.406Z,94735.16
2022-09-11T04:43:40.427Z,94742.75
2022-09-11T04:46:16.773Z,94741.03
2022-09-11T04:48:48.505Z,94741.56
2022-09-11T04:51:24.967Z,94740.16
2022-09-11T04:53:53.065Z,94738.34
2022-09-11T04:56:22.831Z,94745.38
2022-09-11T04:59:03.221Z,94753.50
2022-09-11T05:01:32.833Z,94761.03
2022-09-11T05:04:01.874Z,94760.06
2022-09-11T05:06:30.508Z,94767.69
2022-09-11T05:09:03.647Z,94758.09
2022-09-11T05:11:30.641Z,94771.97
2022-09-11T05:14:00.510Z,94764.88
2022-09-11T05:16:29.271Z,94773.84
2022-09-11T05:18:57.779Z,94774.31
2022-09-11T05:21:26.124Z,94770.69
2022-09-11T05:23:55.621Z,94768.56
2022-09-11T05:26:26.954Z,94776.97
2022-09-11T05:29:03.377Z,94776.44
2022-09-11T05:31:32.142Z,94787.47
2022-09-11T05:34:00.614Z,94796.63
2022-09-11T05:36:28.531Z,94797.91
2022-09-11T05:38:55.352Z,94793.09
2022-09-11T05:41:22.374Z,94806.00
2022-09-11T05:43:49.206Z,94790.97
2022-09-11T05:46:18.885Z,94807.28
2022-09-11T05:48:46.323Z,94802.75
2022-09-11T05:51:20.196Z,94798.25
2022-09-11T05:53:49.097Z,94799.25
2022-09-11T05:56:19.321Z,94798.63
2022-09-11T05:58:48.043Z,94807.25
2022-09-11T06:01:21.142Z,94821.19
2022-09-11T06:03:49.420Z,94818.16
2022-09-11T06:06:18.205Z,94816.34
2022-09-11T06:08:45.399Z,94825.81
2022-09-11T06:11:14.895Z,94820.53
2022-09-11T06:13:44.009Z,94828.47
2022-09-11T06:16:18.067Z,94830.13
2022-09-11T06:18:49.470Z,94841.34
2022-09-11T06:21:22.130Z,94835.31
2022-09-11T06:23:53.092Z,94840.97
2022-09-11T06:26:23.217Z,94844.50
2022-09-11T06:28:51.119Z,94836.41
2022-09-11T06:31:24.442Z,94845.31
2022-09-11T06:33:51.669Z,94839.09
2022-09-11T06:36:21.344Z,94830.56
2022-09-11T06:38:54.412Z,94837.13
2022-09-11T06:41:21.127Z,94833.56
2022-09-11T06:43:47.909Z,94841.66
2022-09-11T06:46:19.834Z,94852.34
2022-09-11T06:48:49.669Z,94847.88
2022-09-11T06:51:19.805Z,94844.66
2022-09-11T06:53:49.882Z,94848.25
2022-09-11T06:56:18.833Z,94846.09
2022-09-11T06:58:46.585Z,94840.81
2022-09-11T07:01:19.654Z,94849.88
2022-09-11T07:03:49.322Z,94845.72
2022-09-11T07:06:28.862Z,94852.06
2022-09-11T07:09:01.712Z,94844.31
2022-09-11T07:11:34.374Z,94846.38
2022-09-11T07:14:05.787Z,94856.69
2022-09-11T07:16:33.627Z,94842.78
2022-09-11T07:19:00.516Z,94852.84
2022-09-11T07:21:28.649Z,94854.75
2022-09-11T07:23:58.762Z,94864.56
2022-09-11T07:26:28.693Z,94863.78
2022-09-11T07:28:57.633Z,94858.94
2022-09-11T07:31:29.453Z,94865.88
2022-09-11T07:33:57.284Z,94873.34
2022-09-11T07:36:35.168Z,94874.97
2022-09-11T07:39:03.680Z,94874.56
2022-09-11T07:41:31.329Z,94881.94
2022-09-11T07:44:03.890Z,94868.88
2022-09-11T07:46:31.224Z,94876.06
2022-09-11T07:48:58.742Z,94881.19
2022-09-11T07:51:26.930Z,94877.06
2022-09-11T07:53:56.630Z,94887.75
2022-09-11T07:56:25.561Z,94881.66
2022-09-11T07:58:55.053Z,94889.88
2022-09-11T08:01:30.693Z,94891.13
2022-09-11T08:04:01.841Z,94888.47
2022-09-11T08:06:32.213Z,94893.41
2022-09-11T08:09:03.783Z,94893.88
2022-09-11T08:11:32.487Z,94897.16
2022-09-11T08:13:59.234Z,94896.53
2022-09-11T08:16:27.942Z,94890.75
2022-09-11T08:18:55.204Z,94897.78
2022-09-11T08:21:23.441Z,94901.47
2022-09-11T08:23:50.732Z,94901.91
2022-09-11T08:26:25.844Z,94916.69
2022-09-11T08:28:55.312Z,94912.19
2022-09-11T08:31:27.665Z,94918.75
2022-09-11T08:33:55.719Z,94921.63
2022-09-11T08:36:23.337Z,94902.81
2022-09-11T08:38:50.222Z,94915.28
2022-09-11T08:41:43.922Z,94911.81
2022-09-11T08:44:21.150Z,94907.31
2022-09-11T08:47:08.827Z,94913.25
2022-09-11T08:49:43.450Z,94917.53
2022-09-11T08:52:14.643Z,94918.78
2022-09-11T08:54:43.576Z,94919.00
2022-09-11T08:57:58.126Z,94919.19
2022-09-11T09:00:33.484Z,94925.53
2022-09-11T09:03:12.651Z,94931.88
2022-09-11T09:06:21.336Z,94935.94
2022-09-11T09:09:24.905Z,94935.75
2022-09-11T09:12:17.838Z,94932.69
2022-09-11T09:15:03.240Z,94931.47
2022-09-11T09:17:41.355Z,94927.38
2022-09-11T09:20:17.000Z,94918.53
2022-09-11T09:22:56.172Z,94923.63
2022-09-11T09:25:24.080Z,94937.50
2022-09-11T09:27:58.108Z,94925.63
2022-09-11T09:30:27.558Z,94917.03
2022-09-11T09:33:37.717Z,94912.47
2022-09-11T09:36:17.689Z,94922.19
2022-09-11T09:38:46.396Z,94923.34
2022-09-11T09:41:54.263Z,94914.66
2022-09-11T09:45:04.533Z,94919.13
2022-09-11T09:47:32.314Z,94898.28
2022-09-11T09:49:59.124Z,94918.31
2022-09-11T09:52:33.773Z,94921.13
2022-09-11T09:55:07.181Z,94919.25
2022-09-11T09:57:37.348Z,94922.19
2022-09-11T10:00:15.998Z,94910.88
2022-09-11T10:02:55.098Z,94910.19
2022-09-11T10:05:35.198Z,94911.50
2022-09-11T10:08:07.532Z,94912.69
2022-09-11T10:10:38.199Z,94910.13
2022-09-11T10:13:25.142Z,94914.22
2022-09-11T10:15:55.584Z,94908.47
2022-09-11T10:18:29.947Z,94910.53
2022-09-11T10:21:11.630Z,94906.81
2022-09-11T10:24:02.367Z,94897.16
2022-09-11T10:26:43.741Z,94891.97
2022-09-11T10:29:30.233Z,94899.59
2022-09-11T10:31:59.817Z,94887.19
2022-09-11T10:34:28.514Z,94900.31
2022-09-11T10:37:00.779Z,94897.44
2022-09-11T10:39:31.010Z,94900.59
2022-09-11T10:42:12.190Z,94895.91
2022-09-11T10:44:45.865Z,94902.03
2022-09-11T10:47:27.725Z,94895.28
2022-09-11T10:50:25.564Z,94897.88
2022-09-11T10:52:57.742Z,94896.38
2022-09-11T10:55:28.611Z,94892.69
2022-09-11T10:58:05.408Z,94882.16
2022-09-11T11:00:32.797Z,94889.59
2022-09-11T11:03:27.915Z,94883.22
2022-09-11T11:06:15.810Z,94904.53
2022-09-11T11:09:24.239Z,94896.22
2022-09-11T11:12:34.364Z,94895.19
2022-09-11T11:15:30.350Z,94888.91
2022-09-11T11:18:06.573Z,94896.25
2022-09-11T11:20:44.912Z,94880.19
2022-09-11T11:23:26.681Z,94880.63
2022-09-11T11:26:39.786Z,94878.06
2022-09-11T11:29:41.366Z,94885.16
2022-09-11T11:32:39.222Z,94866.53
2022-09-11T11:35:17.674Z,94879.75
2022-09-11T11:37:49.307Z,94880.69
2022-09-11T11:40:37.053Z,94881.69
2022-09-11T11:43:10.250Z,94874.81
2022-09-11T11:45:50.655Z,94879.81
2022-09-11T11:48:25.446Z,94880.63
2022-09-11T11:51:00.999Z,94863.81
2022-09-11T11:53:35.381Z,94868.81
2022-09-11T11:56:33.385Z,94869.72
2022-09-11T11:59:11.314Z,94875.97
2022-09-11T12:02:00.293Z,94877.59
2022-09-11T12:04:50.197Z,94863.84
2022-09-11T12:07:34.078Z,94877.25
2022-09-11T12:10:04.112Z,94880.63
2022-09-11T12:12:44.838Z,94878.75
2022-09-11T12:15:28.286Z,94873.78
2022-09-11T12:18:16.391Z,94872.31
2022-09-11T12:20:45.219Z,94857.81
2022-09-11T12:23:30.458Z,94867.91
2022-09-11T12:26:18.258Z,94869.78
2022-09-11T12:28:45.634Z,94865.19
2022-09-11T12:31:18.020Z,94876.97
2022-09-11T12:33:45.949Z,94872.91
2022-09-11T12:36:24.629Z,94873.59
2022-09-11T12:39:00.698Z,94873.94
2022-09-11T12:41:35.574Z,94874.47
2022-09-11T12:44:04.515Z,94871.88
2022-09-11T12:46:31.187Z,94869.59
2022-09-11T12:49:20.996Z,94873.91
2022-09-11T12:51:56.927Z,94854.50
2022-09-11T12:54:39.719Z,94868.53
2022-09-11T12:57:19.334Z,94873.88
2022-09-11T12:59:53.841Z,94865.03
2022-09-11T13:02:38.269Z,94862.69
2022-09-11T13:05:17.740Z,94866.19
2022-09-11T13:07:53.174Z,94855.22
2022-09-11T13:10:39.452Z,94847.56
2022-09-11T13:13:37.555Z,94864.31
2022-09-11T13:16:34.706Z,94868.75
2022-09-11T13:19:10.368Z,94874.81
2022-09-11T13:21:40.587Z,94863.75
2022-09-11T13:24:33.041Z,94856.88
2022-09-11T13:27:21.468Z,94867.38
2022-09-11T13:29:48.890Z,94852.81
2022-09-11T13:32:17.638Z,94864.09
2022-09-11T13:34:49.522Z,94853.41
2022-09-11T13:37:47.957Z,94858.75
2022-09-11T13:40:30.334Z,94853.16
2022-09-11T13:42:59.473Z,94841.38
2022-09-11T13:45:28.644Z,94842.38
2022-09-11T13:47:55.753Z,94849.91
2022-09-11T13:50:23.566Z,94850.50
2022-09-11T13:52:53.753Z,94842.69
2022-09-11T13:55:27.279Z,94847.56
2022-09-11T13:57:59.735Z,94854.91
2022-09-11T14:00:47.258Z,94842.22
2022-09-11T14:03:33.308Z,94844.53
2022-09-11T14:06:15.110Z,94846.84
2022-09-11T14:08:50.076Z,94845.09
2022-09-11T14:11:32.605Z,94829.59
2022-09-11T14:14:08.905Z,94836.84
2022-09-11T14:16:39.175Z,94831.59
2022-09-11T14:19:13.382Z,94832.56
2022-09-11T14:21:47.028Z,94837.03
2022-09-11T14:24:33.220Z,94828.91
2022-09-11T14:27:05.014Z,94824.09
2022-09-11T14:29:36.363Z,94822.34
2022-09-11T14:32:36.358Z,94820.19
2022-09-11T14:35:08.634Z,94826.06
2022-09-11T14:37:42.789Z,94824.84
2022-09-11T14:40:18.865Z,94823.34
2022-09-11T14:42:46.319Z,94820.47
2022-09-11T14:45:23.910Z,94822.56
2022-09-11T14:47:51.085Z,94814.94
2022-09-11T14:50:18.650Z,94818.66
2022-09-11T14:52:46.574Z,94817.13
2022-09-11T14:55:18.863Z,94808.25
2022-09-11T14:57:48.566Z,94805.59
2022-09-11T15:00:17.679Z,94823.38
2022-09-11T15:02:45.218Z,94808.25
2022-09-11T15:05:19.447Z,94817.34
2022-09-11T15:07:46.242Z,94797.84
2022-09-11T15:10:14.204Z,94806.00
2022-09-11T15:12:41.137Z,94792.78
2022-09-11T15:15:08.798Z,94795.81
2022-09-11T15:17:36.483Z,94791.88
2022-09-11T15:20:09.170Z,94781.47
2022-09-11T15:22:38.382Z,94786.56
2022-09-11T15:25:06.364Z,94793.25
2022-09-11T15:27:33.642Z,94787.88
2022-09-11T15:30:00.763Z,94783.69
2022-09-11T15:32:27.627Z,94768.34
2022-09-11T15:34:54.891Z,94792.03
2022-09-11T15:39:55.539Z,94780.09
2022-09-11T15:42:22.437Z,94791.97
2022-09-11T15:44:50.857Z,94779.91
2022-09-11T15:47:17.877Z,94767.28
2022-09-11T15:49:44.691Z,94779.88
2022-09-11T15:52:11.642Z,94775.69
2022-09-11T15:54:38.746Z,94767.50
2022-09-11T15:57:05.593Z,94775.50
2022-09-11T15:59:32.826Z,94784.44
2022-09-11T16:02:00.054Z,94766.63
2022-09-11T16:04:29.654Z,94765.84
2022-09-11T16:06:56.472Z,94781.91
2022-09-11T16:09:29.942Z,94780.47
2022-09-11T16:11:57.459Z,94778.75
2022-09-11T16:14:33.197Z,94781.53
2022-09-11T16:17:03.121Z,94773.75
2022-09-11T16:19:30.690Z,94769.53
2022-09-11T16:22:01.586Z,94774.84
2022-09-11T16:24:31.597Z,94786.25
2022-09-11T16:27:00.654Z,94781.94
2022-09-11T16:29:59.014Z,94767.41
2022-09-11T16:32:28.493Z,94772.50
2022-09-11T16:34:57.706Z,94781.03
2022-09-11T16:37:26.141Z,94778.47
2022-09-11T16:39:53.137Z,94775.38
2022-09-11T16:42:21.326Z,94774.78
2022-09-11T16:44:49.609Z,94782.34
2022-09-11T16:47:17.679Z,94780.47
2022-09-11T16:50:05.797Z,94765.63
2022-09-11T16:52:32.506Z,94756.69
2022-09-11T16:54:59.556Z,94762.94
2022-09-11T16:57:27.543Z,94768.66
2022-09-11T16:59:54.589Z,94765.97
2022-09-11T17:02:21.404Z,94766.28
2022-09-11T17:04:48.441Z,94762.28
2022-09-11T17:07:15.186Z,94765.47
2022-09-11T17:09:43.766Z,94774.06
2022-09-11T17:12:11.054Z,94767.34
2022-09-11T17:14:38.361Z,94779.59
2022-09-11T17:17:05.148Z,94769.91
2022-09-11T17:19:31.878Z,94768.41
2022-09-11T17:21:59.256Z,94773.53
2022-09-11T17:24:26.112Z,94776.72
2022-09-11T17:26:52.895Z,94774.06
2022-09-11T17:29:19.811Z,94762.91
2022-09-11T17:31:47.034Z,94781.34
2022-09-11T17:34:14.799Z,94774.91
2022-09-11T17:36:41.817Z,94780.22
2022-09-11T17:39:09.480Z,94774.34
2022-09-11T17:41:36.596Z,94776.75
2022-09-11T17:44:04.003Z,94773.47
2022-09-11T17:46:30.812Z,94775.63
2022-09-11T17:48:57.742Z,94778.06
2022-09-11T17:51:27.939Z,94769.03
2022-09-11T17:53:57.880Z,94777.63
2022-09-11T17:56:28.446Z,94763.63
2022-09-11T17:58:58.450Z,94784.69
2022-09-11T18:01:27.353Z,94775.97
2022-09-11T18:03:57.135Z,94793.38
2022-09-11T18:06:28.423Z,94795.03
2022-09-11T18:09:00.409Z,94789.56
2022-09-11T18:11:27.824Z,94783.22
2022-09-11T18:13:54.902Z,94796.34
2022-09-11T18:16:22.654Z,94785.31
2022-09-11T18:18:49.513Z,94788.00
2022-09-11T18:21:16.265Z,94792.13
2022-09-11T18:23:45.691Z,94796.81
2022-09-11T18:26:32.313Z,94805.88
2022-09-11T18:29:03.394Z,94804.84
2022-09-11T18:31:33.122Z,94805.47
2022-09-11T18:34:01.419Z,94803.44
2022-09-11T18:36:31.136Z,94810.41
2022-09-11T18:39:01.750Z,94807.94
2022-09-11T18:41:33.018Z,94798.50
2022-09-11T18:44:01.732Z,94810.97
2022-09-11T18:46:28.643Z,94805.44
2022-09-11T18:48:56.171Z,94799.28
2022-09-11T18:51:23.098Z,94800.91
2022-09-11T18:53:53.926Z,94804.16
2022-09-11T18:56:34.568Z,94816.41
2022-09-11T18:59:01.418Z,94812.09
2022-09-11T19:01:36.315Z,94809.44
2022-09-11T19:04:08.289Z,94809.63
2022-09-11T19:06:35.026Z,94800.81
2022-09-11T19:09:01.912Z,94813.44
2022-09-11T19:11:32.270Z,94808.31
2022-09-11T19:14:05.650Z,94822.41
2022-09-11T19:16:33.398Z,94814.00
2022-09-11T19:19:00.428Z,94816.00
2022-09-11T19:21:27.961Z,94823.91
2022-09-11T19:24:00.149Z,94831.22
2022-09-11T19:26:34.382Z,94831.09
2022-09-11T19:29:01.937Z,94821.59
2022-09-11T19:31:30.172Z,94813.63
2022-09-11T19:34:00.860Z,94831.41
2022-09-11T19:36:31.040Z,94835.47
2022-09-11T19:39:01.669Z,94831.38
2022-09-11T19:41:34.776Z,94831.72
2022-09-11T19:44:03.121Z,94828.50
2022-09-11T19:46:32.517Z,94838.66
2022-09-11T19:49:08.497Z,94828.84
2022-09-11T19:51:40.974Z,94830.84
2022-09-11T19:54:08.619Z,94844.16
2022-09-11T19:56:38.286Z,94827.66
2022-09-11T19:59:06.690Z,94827.22
2022-09-11T20:01:33.639Z,94834.13
2022-09-11T20:04:01.019Z,94827.78
2022-09-11T20:06:34.320Z,94838.28
2022-09-11T20:11:49.225Z,94823.13
2022-09-11T20:14:16.069Z,94831.34
2022-09-11T20:16:42.861Z,94827.72
2022-09-11T20:19:10.331Z,94818.63
2022-09-11T20:21:37.236Z,94827.59
2022-09-11T20:24:06.508Z,94828.06
2022-09-11T20:26:34.144Z,94837.88
2022-09-11T20:29:07.193Z,94817.25
2022-09-11T20:31:46.361Z,94828.38
2022-09-11T20:34:15.514Z,94828.13
2022-09-11T20:36:42.298Z,94818.19
2022-09-11T20:39:13.666Z,94824.66
2022-09-11T20:41:40.994Z,94829.97
2022-09-11T20:44:07.863Z,94826.78
2022-09-11T20:46:34.678Z,94814.03
2022-09-11T20:49:03.084Z,94811.03
2022-09-11T20:51:29.925Z,94810.09
2022-09-11T20:53:57.001Z,94816.03
2022-09-11T20:56:24.175Z,94802.00
2022-09-11T20:58:52.170Z,94822.69
2022-09-11T21:01:22.537Z,94818.91
2022-09-11T21:03:53.314Z,94810.00
2022-09-11T21:06:25.827Z,94791.03
2022-09-11T21:09:09.032Z,94818.97
2022-09-11T21:11:37.260Z,94814.91
2022-09-11T21:14:06.350Z,94820.03
2022-09-11T21:16:33.462Z,94818.41
2022-09-11T21:19:02.706Z,94815.47
2022-09-11T21:21:30.148Z,94820.03
2022-09-11T21:24:06.425Z,94807.63
2022-09-11T21:26:34.521Z,94813.97
2022-09-11T21:29:04.834Z,94807.44
2022-09-11T21:31:31.883Z,94808.84
2022-09-11T21:33:59.488Z,94805.78
2022-09-11T21:36:29.415Z,94807.78
2022-09-11T21:38:56.164Z,94817.34
2022-09-11T21:41:23.060Z,94816.56
2022-09-11T21:43:49.846Z,94820.84
2022-09-11T21:46:16.756Z,94822.09
2022-09-11T21:48:43.586Z,94816.91
2022-09-11T21:51:14.302Z,94814.09
2022-09-11T21:53:44.030Z,94822.03
2022-09-11T21:56:25.074Z,94819.03
2022-09-11T21:58:52.917Z,94829.94
2022-09-11T22:01:21.695Z,94815.22
2022-09-11T22:03:48.865Z,94812.56
2022-09-11T22:06:15.919Z,94818.06
2022-09-11T22:08:44.590Z,94816.03
2022-09-11T22:11:11.492Z,94819.03
2022-09-11T22:13:39.593Z,94816.41
2022-09-11T22:16:10.835Z,94822.66
2022-09-11T22:18:39.745Z,94789.13
2022-09-11T22:21:08.669Z,94820.38
2022-09-11T22:23:35.585Z,94808.13
2022-09-11T22:26:10.546Z,94817.50
2022-09-11T22:28:38.557Z,94825.91
2022-09-11T22:31:26.312Z,94824.75
2022-09-11T22:33:55.119Z,94812.66
2022-09-11T22:36:25.997Z,94820.66
2022-09-11T22:38:53.337Z,94807.31
2022-09-11T22:41:20.499Z,94820.34
2022-09-11T22:43:48.947Z,94819.22
2022-09-11T22:46:17.393Z,94824.19
2022-09-11T22:48:44.167Z,94811.75
2022-09-11T22:51:11.346Z,94810.88
2022-09-11T22:53:39.823Z,94791.63
2022-09-11T22:56:07.443Z,94808.06
2022-09-11T22:58:34.303Z,94812.97
2022-09-11T23:01:03.844Z,94807.38
2022-09-11T23:03:31.150Z,94785.00
2022-09-11T23:06:19.452Z,94809.66
2022-09-11T23:08:47.313Z,94796.66
2022-09-11T23:11:17.223Z,94789.63
2022-09-11T23:13:44.353Z,94792.97
2022-09-11T23:16:17.177Z,94793.13
2022-09-11T23:18:45.007Z,94800.75
2022-09-11T23:21:12.545Z,94799.59
2022-09-11T23:23:43.588Z,94793.00
2022-09-11T23:26:12.945Z,94794.78
2022-09-11T23:28:40.888Z,94792.50
2022-09-11T23:31:19.426Z,94773.28
2022-09-11T23:33:47.235Z,94781.28
2022-09-11T23:36:16.391Z,94777.50
2022-09-11T23:38:47.428Z,94770.28
2022-09-11T23:41:15.307Z,94780.94
2022-09-11T23:43:42.314Z,94769.94
2022-09-11T23:46:09.557Z,94763.34
2022-09-11T23:48:36.577Z,94777.19
2022-09-11T23:51:03.762Z,94777.84
2022-09-11T23:53:31.251Z,94771.19
2022-09-11T23:55:58.799Z,94774.63
2022-09-11T23:58:26.665Z,94754.91
